Terminal Aerodrome Forecast
Issued by NWS Riverton, WY

Home | Current Version | Previous Version | Text Only | Print | Product List | Glossary On
Versions: 1 2 3 4 5 6 7 8 9 10 11 12 13 14 15 16 17
080
FTUS45 KRIW 231134
TAFRIW
TAF
KRIW 231134Z 2312/2412 07006KT P6SM VCFG SCT004 BKN020
      TEMPO 2312/2316 3SM BR BKN004
     FM231600 04007KT P6SM SCT009 BKN019
     FM232000 04009KT P6SM -RA BKN008 OVC015
     FM241000 04012KT 6SM -SNRA SCT003 BKN007=

USA.gov is the U.S. government's official web portal to all federal, state and local government web resources and services.